Time;durP1;ratioP1;P1;durP2;ratioP2;P2;SDS_P1;SDS_P2;PMS_P1;PMS_P2;Temp;Humidity;BMP_temperature;BMP_pressure;BME280_temperature;BME280_humidity;BME280_pressure;Samples;Min_cycle;Max_cycle;Signal;HPM_P1;HPM_P2
2023/07/09 00:09:39;;;;;;;1999.90;999.90;;;24.60;99.90;;;;;;6698794;88;20188;-80
2023/07/09 00:19:43;;;;;;;1999.90;999.90;;;24.50;99.90;;;;;;6700757;88;20198;-81
2023/07/09 00:29:44;;;;;;;1999.90;999.90;;;24.30;99.90;;;;;;6699682;88;20201;-81
2023/07/09 00:39:45;;;;;;;1999.90;999.90;;;23.90;99.90;;;;;;6700613;88;20724;-81
2023/07/09 00:49:47;;;;;;;1999.90;999.90;;;23.70;99.90;;;;;;6701377;88;20642;-80
2023/07/09 01:00:09;;;;;;;1999.90;999.90;;;23.50;99.90;;;;;;6702787;88;20214;-81
2023/07/09 01:10:09;;;;;;;1999.90;999.90;;;23.30;99.90;;;;;;6701709;88;20164;-81
2023/07/09 01:20:19;;;;;;;1999.90;999.90;;;23.20;99.90;;;;;;6701076;88;20191;-82
2023/07/09 01:30:41;;;;;;;1999.90;999.90;;;23.20;99.90;;;;;;6697434;88;20698;-80
2023/07/09 01:40:41;;;;;;;1999.90;999.90;;;23.30;99.90;;;;;;6702384;88;20723;-81
2023/07/09 01:50:43;;;;;;;1999.90;999.90;;;23.40;99.90;;;;;;6703006;88;20247;-80
2023/07/09 02:00:44;;;;;;;1999.90;999.90;;;23.10;99.90;;;;;;6705334;88;20284;-81
2023/07/09 02:10:48;;;;;;;1999.90;999.90;;;22.90;99.90;;;;;;6705046;88;20197;-80
2023/07/09 02:20:49;;;;;;;1999.90;999.90;;;22.70;99.90;;;;;;6700662;88;20255;-80
2023/07/09 02:30:49;;;;;;;1999.90;999.90;;;22.40;99.90;;;;;;6696752;88;20202;-81
2023/07/09 02:40:50;;;;;;;1999.90;999.90;;;22.10;99.90;;;;;;6697040;88;20810;-81
2023/07/09 02:50:50;;;;;;;1999.90;999.90;;;21.70;99.90;;;;;;6701731;89;20246;-81
2023/07/09 03:00:54;;;;;;;1999.90;999.90;;;21.50;99.90;;;;;;6701818;89;20190;-80
2023/07/09 03:10:54;;;;;;;1999.90;999.90;;;21.20;99.90;;;;;;6702557;89;20246;-81
2023/07/09 03:20:55;;;;;;;1999.90;999.90;;;21.10;99.90;;;;;;6702460;89;20279;-81
2023/07/09 03:30:56;;;;;;;1999.90;999.90;;;21.00;99.90;;;;;;6700882;88;20220;-81
2023/07/09 03:40:57;;;;;;;1999.90;999.90;;;21.10;99.90;;;;;;6701171;88;20242;-80
2023/07/09 03:50:57;;;;;;;1999.90;999.90;;;21.00;99.90;;;;;;6704715;88;20376;-81
2023/07/09 04:00:58;;;;;;;1999.90;999.90;;;21.00;99.90;;;;;;6704264;88;20194;-81
2023/07/09 04:11:01;;;;;;;1999.90;999.90;;;21.00;99.90;;;;;;6699914;88;20229;-81
2023/07/09 04:31:05;;;;;;;1999.90;999.90;;;21.10;99.90;;;;;;6739092;88;20198;-78
2023/07/09 04:41:06;;;;;;;1999.90;999.90;;;21.00;99.90;;;;;;6744923;88;20814;-78
2023/07/09 04:51:07;;;;;;;1999.90;999.90;;;21.20;99.90;;;;;;6747027;88;20185;-78
2023/07/09 05:01:07;;;;;;;1999.90;999.90;;;21.40;99.90;;;;;;6748607;88;20184;-78
2023/07/09 05:11:08;;;;;;;1999.90;999.90;;;21.50;99.90;;;;;;6746551;88;20198;-77
2023/07/09 05:21:09;;;;;;;1999.90;999.90;;;21.90;99.90;;;;;;6749998;88;20267;-78
2023/07/09 05:31:10;;;;;;;1999.90;999.90;;;22.00;99.90;;;;;;6745712;88;20180;-79
2023/07/09 05:41:10;;;;;;;1999.90;999.90;;;22.20;99.90;;;;;;6739655;88;20188;-79
2023/07/09 05:51:11;;;;;;;1999.90;999.90;;;22.40;99.90;;;;;;6734764;88;20184;-79
2023/07/09 06:01:12;;;;;;;1999.90;999.90;;;22.80;99.90;;;;;;6734658;88;20332;-79
2023/07/09 06:11:13;;;;;;;1999.90;999.90;;;23.10;99.90;;;;;;6728779;88;20177;-79
2023/07/09 06:21:13;;;;;;;1999.90;999.90;;;23.80;99.90;;;;;;6735946;88;20169;-79
2023/07/09 06:31:14;;;;;;;1999.90;999.90;;;24.40;99.90;;;;;;6735822;88;20213;-78
2023/07/09 06:41:16;;;;;;;1999.90;999.90;;;25.20;99.90;;;;;;6747959;88;20182;-78
2023/07/09 06:51:17;;;;;;;1999.90;999.90;;;25.60;99.90;;;;;;6746560;88;20903;-80
2023/07/09 07:01:17;;;;;;;1999.90;999.90;;;26.20;99.90;;;;;;6739629;88;20233;-78
2023/07/09 07:11:18;;;;;;;1999.90;999.90;;;26.80;99.90;;;;;;6733885;88;20178;-77
2023/07/09 07:21:18;;;;;;;1999.90;999.90;;;27.30;99.90;;;;;;6748822;88;20247;-78
2023/07/09 07:31:19;;;;;;;1999.90;999.90;;;27.80;99.90;;;;;;6743585;88;20258;-78
2023/07/09 07:41:20;;;;;;;1999.90;999.90;;;27.90;99.90;;;;;;6728113;88;20251;-77
2023/07/09 07:51:22;;;;;;;1999.90;999.90;;;28.60;99.90;;;;;;6749876;88;20759;-77
2023/07/09 08:01:22;;;;;;;1999.90;999.90;;;29.20;99.20;;;;;;6749975;88;20501;-78
2023/07/09 08:11:24;;;;;;;1999.90;999.90;;;29.60;98.30;;;;;;6745842;88;20141;-77
2023/07/09 08:21:24;;;;;;;1999.90;999.90;;;30.10;97.00;;;;;;6736843;88;20169;-78
2023/07/09 08:31:25;;;;;;;1999.90;999.90;;;30.40;96.90;;;;;;6728346;88;20919;-78
2023/07/09 08:41:52;;;;;;;1999.90;999.90;;;30.90;96.70;;;;;;6707624;88;20764;-77
2023/07/09 08:51:53;;;;;;;1999.90;999.90;;;31.10;95.80;;;;;;6705773;88;20647;-79
2023/07/09 09:01:59;;;;;;;1999.90;999.90;;;31.80;95.20;;;;;;6707253;88;20689;-81
2023/07/09 09:12:15;;;;;;;1999.90;999.90;;;32.00;95.10;;;;;;6707733;88;20189;-81
2023/07/09 09:22:21;;;;;;;1999.90;999.90;;;33.00;93.80;;;;;;6690445;88;20305;-79
2023/07/09 09:32:30;;;;;;;1999.90;999.90;;;33.60;93.50;;;;;;6692321;88;20215;-78
2023/07/09 09:42:32;;;;;;;1999.90;999.90;;;34.00;92.60;;;;;;6694500;88;20194;-80
2023/07/09 09:52:34;;;;;;;1999.90;999.90;;;35.70;91.30;;;;;;6695217;88;20214;-82
2023/07/09 10:02:41;;;;;;;1999.90;999.90;;;36.40;90.70;;;;;;6691383;88;20221;-80
2023/07/09 10:12:42;;;;;;;1999.90;999.90;;;36.40;87.50;;;;;;6689283;88;20197;-78
2023/07/09 10:33:02;;;;;;;1999.90;999.90;;;35.50;85.70;;;;;;6724905;88;20197;-79
2023/07/09 10:43:04;;;;;;;1999.90;999.90;;;35.90;83.80;;;;;;6726357;88;20709;-79
2023/07/09 10:53:32;;;;;;;1999.90;999.90;;;36.20;80.10;;;;;;6724624;88;20404;-80
2023/07/09 11:03:50;;;;;;;1999.90;999.90;;;36.80;78.70;;;;;;6716657;88;20197;-79
2023/07/09 11:13:54;;;;;;;1999.90;999.90;;;37.20;77.20;;;;;;6737023;88;20178;-80
2023/07/09 11:24:00;;;;;;;1999.90;999.90;;;37.50;74.40;;;;;;6720842;88;20912;-81
2023/07/09 11:34:07;;;;;;;1999.90;999.90;;;37.90;73.10;;;;;;6728666;88;20311;-79
2023/07/09 11:44:28;;;;;;;1999.90;999.90;;;36.80;72.90;;;;;;6723171;88;20739;-79
2023/07/09 11:54:34;;;;;;;1999.90;999.90;;;37.40;71.60;;;;;;6704563;88;20206;-80
2023/07/09 12:04:35;;;;;;;1999.90;999.90;;;38.20;72.60;;;;;;6707382;88;20558;-82
2023/07/09 12:14:35;;;;;;;1999.90;999.90;;;38.00;70.20;;;;;;6709340;88;20259;-80
2023/07/09 12:24:38;;;;;;;1999.90;999.90;;;37.50;69.30;;;;;;6708095;88;20328;-80
2023/07/09 12:34:39;;;;;;;1999.90;999.90;;;36.60;70.30;;;;;;6708527;88;20169;-80
2023/07/09 12:44:41;;;;;;;1999.90;999.90;;;36.30;69.10;;;;;;6706889;88;20420;-80
2023/07/09 12:55:01;;;;;;;1999.90;999.90;;;36.20;68.40;;;;;;6707922;88;20745;-79
2023/07/09 13:05:16;;;;;;;1999.90;999.90;;;37.30;68.70;;;;;;6707359;88;20681;-81
2023/07/09 13:15:36;;;;;;;1999.90;999.90;;;37.60;67.80;;;;;;6707150;88;20200;-79
2023/07/09 13:25:39;;;;;;;1999.90;999.90;;;36.80;67.60;;;;;;6705494;88;20243;-80
2023/07/09 13:35:39;;;;;;;1999.90;999.90;;;36.10;66.90;;;;;;6709306;88;20289;-79
2023/07/09 13:45:40;;;;;;;;;;;35.80;67.40;;;;;;6706406;88;20662;-80
2023/07/09 13:55:41;;;;;;;1999.90;999.90;;;36.10;66.30;;;;;;6708156;88;20501;-79
2023/07/09 14:05:42;;;;;;;1999.90;999.90;;;35.30;68.40;;;;;;6707630;88;20197;-80
2023/07/09 14:15:43;;;;;;;1999.90;999.90;;;33.50;71.40;;;;;;6706978;88;20213;-80
2023/07/09 14:25:44;;;;;;;1999.90;999.90;;;32.90;71.60;;;;;;6704790;88;20209;-79
2023/07/09 14:35:45;;;;;;;1999.90;999.90;;;33.40;71.30;;;;;;6701441;88;20210;-80
2023/07/09 14:45:47;;;;;;;1999.90;999.90;;;33.40;71.30;;;;;;6706397;88;20649;-78
2023/07/09 14:55:48;;;;;;;1999.90;999.90;;;31.80;80.50;;;;;;6704133;88;20175;-79
2023/07/09 15:05:49;;;;;;;1999.90;999.90;;;29.00;95.50;;;;;;6710183;88;20208;-80
2023/07/09 15:15:50;;;;;;;1999.90;999.90;;;28.00;99.90;;;;;;6708502;88;20598;-81
2023/07/09 15:25:51;;;;;;;1999.90;999.90;;;27.40;99.90;;;;;;6719751;88;20223;-81
2023/07/09 15:35:52;;;;;;;1999.90;999.90;;;26.20;99.90;;;;;;6709802;88;20201;-81
2023/07/09 15:45:56;;;;;;;1999.90;999.90;;;25.00;99.90;;;;;;6712605;88;20804;-80
2023/07/09 15:56:12;;;;;;;1999.90;999.90;;;24.40;99.90;;;;;;6710112;88;20218;-80
2023/07/09 16:06:14;;;;;;;1999.90;999.90;;;24.10;99.90;;;;;;6705586;88;20239;-79
2023/07/09 16:16:20;;;;;;;1999.90;999.90;;;24.30;99.90;;;;;;6705199;88;20602;-78
2023/07/09 16:36:24;;;;;;;1999.90;999.90;;;23.90;99.90;;;;;;6723919;88;20197;-77
2023/07/09 16:46:25;;;;;;;1999.90;999.90;;;23.90;99.90;;;;;;6721788;88;20721;-77
2023/07/09 16:56:26;;;;;;;1999.90;999.90;;;23.90;99.90;;;;;;6719009;88;20236;-78
2023/07/09 17:06:26;;;;;;;1999.90;999.90;;;24.10;99.90;;;;;;6735678;88;20188;-78
2023/07/09 17:16:27;;;;;;;1999.90;999.90;;;24.50;99.90;;;;;;6740389;88;20685;-78
2023/07/09 17:26:27;;;;;;;1999.90;999.90;;;25.00;99.90;;;;;;6736358;88;20640;-79
2023/07/09 17:36:30;;;;;;;1999.90;999.90;;;24.90;99.90;;;;;;6741026;88;20736;-79
2023/07/09 17:46:31;;;;;;;1999.90;999.90;;;24.70;99.90;;;;;;6738009;88;20218;-78
2023/07/09 17:56:31;;;;;;;1999.90;999.90;;;24.70;99.90;;;;;;6742488;88;20192;-79
2023/07/09 18:06:32;;;;;;;1999.90;999.90;;;24.80;99.90;;;;;;6747445;88;20647;-78
2023/07/09 18:16:32;;;;;;;1999.90;999.90;;;24.50;99.90;;;;;;6734828;88;21167;-79
2023/07/09 18:26:33;;;;;;;1999.90;999.90;;;24.40;99.90;;;;;;6717297;88;20202;-78
2023/07/09 18:36:33;;;;;;;1999.90;999.90;;;24.60;99.90;;;;;;6722476;88;20184;-78
2023/07/09 18:46:34;;;;;;;1999.90;999.90;;;24.50;99.90;;;;;;6688855;88;20190;-79
2023/07/09 18:56:34;;;;;;;1999.90;999.90;;;24.70;99.90;;;;;;6691982;88;20618;-78
2023/07/09 19:06:35;;;;;;;1999.90;999.90;;;24.70;99.90;;;;;;6703630;88;20223;-79
2023/07/09 19:16:35;;;;;;;1999.90;999.90;;;24.40;99.90;;;;;;6730251;88;20288;-78
2023/07/09 19:26:36;;;;;;;1999.90;999.90;;;24.40;99.90;;;;;;6724326;88;20173;-79
2023/07/09 19:36:37;;;;;;;1999.90;999.90;;;24.20;99.90;;;;;;6711909;88;20534;-80
2023/07/09 19:46:37;;;;;;;1999.90;999.90;;;24.10;99.90;;;;;;6723161;88;20181;-79
2023/07/09 19:56:38;;;;;;;1999.90;999.90;;;23.90;99.90;;;;;;6712924;88;20365;-80
2023/07/09 20:06:39;;;;;;;1999.90;999.90;;;23.80;99.90;;;;;;6728683;88;20288;-80
2023/07/09 20:16:40;;;;;;;1999.90;999.90;;;23.70;99.90;;;;;;6731028;88;20197;-80
2023/07/09 20:26:40;;;;;;;1999.90;999.90;;;23.60;99.90;;;;;;6728227;88;20510;-81
2023/07/09 20:36:41;;;;;;;1999.90;999.90;;;23.40;99.90;;;;;;6729109;88;20662;-80
2023/07/09 20:46:41;;;;;;;1999.90;999.90;;;23.30;99.90;;;;;;6727704;88;20185;-80
2023/07/09 20:56:42;;;;;;;1999.90;999.90;;;23.20;99.90;;;;;;6741475;88;20242;-80
2023/07/09 21:06:44;;;;;;;1999.90;999.90;;;23.10;99.90;;;;;;6746073;88;20347;-79
2023/07/09 21:16:55;;;;;;;1999.90;999.90;;;23.10;99.90;;;;;;6740727;88;20645;-79
2023/07/09 21:26:57;;;;;;;1999.90;999.90;;;23.10;99.90;;;;;;6725854;88;20197;-80
2023/07/09 21:37:01;;;;;;;1999.90;999.90;;;23.20;99.90;;;;;;6710324;88;20257;-80
2023/07/09 21:47:05;;;;;;;1999.90;999.90;;;23.20;99.90;;;;;;6715365;88;20190;-80
2023/07/09 21:57:07;;;;;;;1999.90;999.90;;;23.10;99.90;;;;;;6742499;88;20197;-81
2023/07/09 22:07:16;;;;;;;1999.90;999.90;;;23.10;99.90;;;;;;6745927;88;20535;-79
2023/07/09 22:17:25;;;;;;;1999.90;999.90;;;23.00;99.90;;;;;;6710081;88;20239;-80
2023/07/09 22:27:26;;;;;;;1999.90;999.90;;;22.90;99.90;;;;;;6709881;88;20382;-79
2023/07/09 22:37:26;;;;;;;1999.90;999.90;;;22.90;99.90;;;;;;6710687;88;20195;-79
2023/07/09 22:47:28;;;;;;;1999.90;999.90;;;22.80;99.90;;;;;;6710103;88;20747;-80
2023/07/09 22:57:28;;;;;;;1999.90;999.90;;;22.70;99.90;;;;;;6711318;88;20652;-81
2023/07/09 23:07:29;;;;;;;1999.90;999.90;;;22.60;99.90;;;;;;6712183;88;20158;-81
2023/07/09 23:17:29;;;;;;;1999.90;999.90;;;22.60;99.90;;;;;;6713050;88;20185;-81
2023/07/09 23:27:30;;;;;;;1999.90;999.90;;;22.60;99.90;;;;;;6709198;88;20194;-80
2023/07/09 23:37:30;;;;;;;1999.90;999.90;;;22.70;99.90;;;;;;6711707;88;20200;-78
2023/07/09 23:47:31;;;;;;;1999.90;999.90;;;22.60;99.90;;;;;;6706384;88;20269;-79
2023/07/09 23:57:32;;;;;;;1999.90;999.90;;;22.60;99.90;;;;;;6716621;88;20643;-80
